Time;durP1;ratioP1;P1;durP2;ratioP2;P2;SDS_P1;SDS_P2;PMS_P1;PMS_P2;Temp;Humidity;BMP_temperature;BMP_pressure;BME280_temperature;BME280_humidity;BME280_pressure;Samples;Min_cycle;Max_cycle;Signal;HPM_P1;HPM_P2
2022/10/23 00:00:46;;;;;;;5.97;3.97;;;;;;;;;;5070066;28;20293;-45
2022/10/23 00:03:14;;;;;;;5.83;4.20;;;;;;;;;;5072487;28;20644;-45
2022/10/23 00:05:40;;;;;;;6.77;4.40;;;;;;;;;;5072169;28;20210;-45
2022/10/23 00:08:06;;;;;;;6.83;4.43;;;;;;;;;;5072283;28;20222;-45
2022/10/23 00:10:32;;;;;;;6.50;4.43;;;;;;;;;;5071938;28;20204;-45
2022/10/23 00:12:58;;;;;;;7.03;4.40;;;;;;;;;;5070482;28;20618;-45
2022/10/23 00:15:26;;;;;;;4.33;3.60;;;;;;;;;;5071842;28;20788;-45
2022/10/23 00:17:53;;;;;;;7.03;4.50;;;;;;;;;;5071915;28;20257;-45
2022/10/23 00:20:20;;;;;;;7.30;3.83;;;;;;;;;;5072074;28;20223;-45
2022/10/23 00:22:46;;;;;;;6.27;4.27;;;;;;;;;;5071973;28;20207;-45
2022/10/23 00:25:12;;;;;;;7.33;3.80;;;;;;;;;;5071812;28;20281;-45
2022/10/23 00:27:38;;;;;;;5.20;4.27;;;;;;;;;;5072047;28;20298;-45
2022/10/23 00:30:05;;;;;;;5.07;3.37;;;;;;;;;;5068456;28;20274;-45
2022/10/23 00:32:31;;;;;;;4.97;4.50;;;;;;;;;;5070014;28;20199;-45
2022/10/23 00:34:57;;;;;;;5.17;4.40;;;;;;;;;;5071604;28;20195;-45
2022/10/23 00:37:25;;;;;;;6.63;4.40;;;;;;;;;;5071634;28;20199;-45
2022/10/23 00:39:51;;;;;;;6.73;4.67;;;;;;;;;;5071709;28;20253;-45
2022/10/23 00:42:17;;;;;;;5.80;4.37;;;;;;;;;;5071700;28;20202;-45
2022/10/23 00:45:01;;;;;;;9.10;5.70;;;;;;;;;;5070932;28;20227;-45
2022/10/23 00:47:27;;;;;;;8.97;5.30;;;;;;;;;;5071557;28;20198;-44
2022/10/23 00:49:53;;;;;;;8.00;5.57;;;;;;;;;;5071184;28;20297;-45
2022/10/23 00:52:20;;;;;;;8.60;6.33;;;;;;;;;;5071524;28;20203;-45
2022/10/23 00:54:47;;;;;;;10.77;7.03;;;;;;;;;;5071513;28;20225;-44
2022/10/23 00:57:14;;;;;;;9.17;6.17;;;;;;;;;;5071513;28;20230;-44
2022/10/23 00:59:40;;;;;;;7.30;4.90;;;;;;;;;;5070572;28;20688;-44
2022/10/23 01:02:06;;;;;;;7.60;5.30;;;;;;;;;;5071020;28;20557;-44
2022/10/23 01:04:33;;;;;;;5.37;4.47;;;;;;;;;;5070797;28;20255;-44
2022/10/23 01:07:03;;;;;;;5.50;4.30;;;;;;;;;;5071173;28;20705;-45
2022/10/23 01:09:32;;;;;;;5.67;3.93;;;;;;;;;;5071018;28;20276;-44
2022/10/23 01:12:00;;;;;;;4.70;4.03;;;;;;;;;;5071293;28;20195;-45
2022/10/23 01:14:28;;;;;;;5.83;4.37;;;;;;;;;;5071176;28;20196;-45
2022/10/23 01:17:00;;;;;;;7.97;4.63;;;;;;;;;;5070990;28;20284;-45
2022/10/23 01:19:29;;;;;;;6.00;4.40;;;;;;;;;;5071162;28;20195;-45
2022/10/23 01:22:00;;;;;;;4.97;4.17;;;;;;;;;;5071180;28;20200;-45
2022/10/23 01:24:38;;;;;;;6.67;4.50;;;;;;;;;;5070981;28;20231;-45
2022/10/23 01:27:19;;;;;;;5.43;4.50;;;;;;;;;;5071036;28;20245;-44
2022/10/23 01:29:49;;;;;;;4.20;3.80;;;;;;;;;;5072309;28;20253;-44
2022/10/23 01:32:17;;;;;;;5.00;3.93;;;;;;;;;;5074690;28;20191;-44
2022/10/23 01:34:45;;;;;;;6.07;3.70;;;;;;;;;;5074635;28;20246;-44
2022/10/23 01:37:13;;;;;;;6.27;3.83;;;;;;;;;;5074822;28;20202;-44
2022/10/23 01:39:41;;;;;;;5.23;3.70;;;;;;;;;;5074624;28;20230;-45
2022/10/23 01:42:09;;;;;;;5.93;4.20;;;;;;;;;;5074696;28;20773;-44
2022/10/23 01:44:40;;;;;;;5.07;4.20;;;;;;;;;;5074433;28;20228;-44
2022/10/23 01:47:08;;;;;;;4.80;4.10;;;;;;;;;;5074700;28;20207;-44
2022/10/23 01:49:35;;;;;;;5.07;3.93;;;;;;;;;;5073372;28;20206;-43
2022/10/23 01:52:03;;;;;;;5.27;4.00;;;;;;;;;;5074187;28;20201;-45
2022/10/23 01:54:30;;;;;;;5.60;3.87;;;;;;;;;;5074501;28;20191;-44
2022/10/23 01:56:58;;;;;;;4.83;4.07;;;;;;;;;;5074401;28;20662;-45
2022/10/23 01:59:26;;;;;;;5.20;4.53;;;;;;;;;;5073021;28;20662;-45
2022/10/23 02:01:55;;;;;;;5.27;4.30;;;;;;;;;;5074193;28;20199;-44
2022/10/23 02:04:23;;;;;;;5.90;4.10;;;;;;;;;;5074141;28;20231;-45
2022/10/23 02:06:49;;;;;;;4.10;3.70;;;;;;;;;;5074212;28;20245;-44
2022/10/23 02:09:15;;;;;;;4.80;3.77;;;;;;;;;;5074008;28;20227;-44
2022/10/23 02:11:45;;;;;;;4.60;3.73;;;;;;;;;;5074235;28;20196;-44
2022/10/23 02:14:16;;;;;;;5.07;4.23;;;;;;;;;;5074240;28;20195;-44
2022/10/23 02:16:45;;;;;;;5.77;4.20;;;;;;;;;;5074051;28;20191;-45
2022/10/23 02:19:18;;;;;;;4.80;4.30;;;;;;;;;;5073713;28;20221;-44
2022/10/23 02:21:48;;;;;;;6.57;4.00;;;;;;;;;;5073997;28;20211;-45
2022/10/23 02:24:16;;;;;;;4.73;4.33;;;;;;;;;;5073786;28;20273;-45
2022/10/23 02:26:46;;;;;;;4.33;3.93;;;;;;;;;;5073854;28;20199;-45
2022/10/23 02:29:15;;;;;;;4.73;4.17;;;;;;;;;;5073943;28;20200;-45
2022/10/23 02:31:41;;;;;;;4.97;3.73;;;;;;;;;;5073719;28;20218;-45
2022/10/23 02:34:07;;;;;;;3.93;3.53;;;;;;;;;;5073763;28;20253;-45
2022/10/23 02:36:34;;;;;;;4.43;3.87;;;;;;;;;;5073460;28;20666;-45
2022/10/23 02:39:01;;;;;;;5.20;3.83;;;;;;;;;;5073288;28;20299;-45
2022/10/23 02:41:38;;;;;;;4.23;3.83;;;;;;;;;;5073423;28;20290;-45
2022/10/23 02:44:20;;;;;;;5.57;4.17;;;;;;;;;;5073431;28;20207;-45
2022/10/23 02:46:50;;;;;;;5.10;4.00;;;;;;;;;;5073630;28;20198;-45
2022/10/23 02:49:18;;;;;;;5.87;4.20;;;;;;;;;;5073280;28;20658;-45
2022/10/23 02:51:53;;;;;;;6.60;3.70;;;;;;;;;;5072118;28;20236;-45
2022/10/23 02:54:25;;;;;;;4.47;4.07;;;;;;;;;;5073589;28;20213;-45
2022/10/23 02:56:57;;;;;;;4.67;4.20;;;;;;;;;;5073365;28;20188;-45
2022/10/23 02:59:27;;;;;;;4.90;4.27;;;;;;;;;;5073463;28;20191;-45
2022/10/23 03:01:55;;;;;;;5.43;3.90;;;;;;;;;;5073082;28;20192;-45
2022/10/23 03:04:24;;;;;;;7.60;3.97;;;;;;;;;;5073192;28;20238;-45
2022/10/23 03:06:51;;;;;;;5.33;3.50;;;;;;;;;;5073026;28;20233;-45
2022/10/23 03:09:18;;;;;;;4.93;3.90;;;;;;;;;;5073105;28;20220;-45
2022/10/23 03:11:44;;;;;;;5.90;4.00;;;;;;;;;;5073137;28;20202;-45
2022/10/23 03:14:11;;;;;;;4.83;3.80;;;;;;;;;;5073125;28;20287;-45
2022/10/23 03:16:37;;;;;;;4.30;3.90;;;;;;;;;;5073011;28;20206;-45
2022/10/23 03:19:03;;;;;;;5.43;4.00;;;;;;;;;;5072311;28;20616;-45
2022/10/23 03:21:29;;;;;;;5.30;4.40;;;;;;;;;;5072870;28;20212;-45
2022/10/23 03:23:56;;;;;;;6.10;4.27;;;;;;;;;;5072669;28;20219;-45
2022/10/23 03:26:22;;;;;;;6.47;4.20;;;;;;;;;;5071456;28;20238;-45
2022/10/23 03:28:48;;;;;;;4.70;4.30;;;;;;;;;;5072676;28;20199;-45
2022/10/23 03:31:14;;;;;;;8.20;4.40;;;;;;;;;;5072842;28;20191;-45
2022/10/23 03:33:40;;;;;;;5.10;4.30;;;;;;;;;;5072052;28;20715;-45
2022/10/23 03:36:06;;;;;;;4.00;3.70;;;;;;;;;;5072608;28;20294;-45
2022/10/23 03:38:32;;;;;;;4.77;3.90;;;;;;;;;;5072309;28;20694;-45
2022/10/23 03:41:00;;;;;;;5.87;3.87;;;;;;;;;;5072557;28;20231;-45
2022/10/23 03:43:26;;;;;;;3.90;3.50;;;;;;;;;;5072476;28;20591;-44
2022/10/23 03:45:52;;;;;;;4.97;4.00;;;;;;;;;;5072261;28;20608;-45
2022/10/23 03:48:18;;;;;;;4.20;3.80;;;;;;;;;;5071967;28;20222;-45
2022/10/23 03:50:44;;;;;;;5.37;3.70;;;;;;;;;;5071589;28;20585;-45
2022/10/23 03:53:10;;;;;;;7.33;4.00;;;;;;;;;;5071726;28;20191;-44
2022/10/23 03:55:36;;;;;;;4.67;3.93;;;;;;;;;;5072230;28;20241;-44
2022/10/23 03:58:03;;;;;;;4.93;4.43;;;;;;;;;;5070797;28;20207;-44
2022/10/23 04:00:29;;;;;;;5.23;4.03;;;;;;;;;;5072217;28;20227;-45
2022/10/23 04:02:55;;;;;;;4.53;3.77;;;;;;;;;;5071968;28;20203;-44
2022/10/23 04:05:21;;;;;;;4.37;3.97;;;;;;;;;;5071708;28;20219;-44
2022/10/23 04:07:47;;;;;;;5.37;3.93;;;;;;;;;;5071872;28;20627;-44
2022/10/23 04:10:13;;;;;;;4.57;4.17;;;;;;;;;;5070369;28;20204;-44
2022/10/23 04:12:39;;;;;;;5.57;4.37;;;;;;;;;;5070709;28;20199;-44
2022/10/23 04:15:07;;;;;;;4.80;4.40;;;;;;;;;;5071750;28;20196;-44
2022/10/23 04:17:33;;;;;;;4.90;4.33;;;;;;;;;;5071582;28;20207;-44
2022/10/23 04:19:59;;;;;;;4.93;4.23;;;;;;;;;;5071540;28;20616;-44
2022/10/23 04:22:26;;;;;;;5.67;3.83;;;;;;;;;;5071523;28;20728;-44
2022/10/23 04:24:52;;;;;;;5.87;3.87;;;;;;;;;;5071342;28;20597;-44
2022/10/23 04:27:18;;;;;;;4.70;4.20;;;;;;;;;;5071602;28;20210;-44
2022/10/23 04:29:44;;;;;;;4.00;3.53;;;;;;;;;;5071258;28;20234;-45
2022/10/23 04:32:11;;;;;;;4.37;3.97;;;;;;;;;;5071720;28;20199;-44
2022/10/23 04:34:37;;;;;;;5.10;3.60;;;;;;;;;;5071267;28;20231;-44
2022/10/23 04:37:03;;;;;;;4.60;3.83;;;;;;;;;;5071541;28;20252;-45
2022/10/23 04:39:29;;;;;;;4.50;4.10;;;;;;;;;;5071398;28;20245;-45
2022/10/23 04:41:55;;;;;;;7.97;4.30;;;;;;;;;;5071301;28;20203;-45
2022/10/23 04:44:21;;;;;;;5.43;4.93;;;;;;;;;;5071346;28;20257;-44
2022/10/23 04:46:47;;;;;;;5.37;3.97;;;;;;;;;;5070392;28;20195;-45
2022/10/23 04:49:15;;;;;;;4.90;4.00;;;;;;;;;;5069572;28;20199;-44
2022/10/23 04:51:40;;;;;;;5.27;4.03;;;;;;;;;;5071002;28;20325;-44
2022/10/23 04:54:08;;;;;;;4.20;3.80;;;;;;;;;;5071386;28;20283;-45
2022/10/23 04:56:34;;;;;;;5.50;3.73;;;;;;;;;;5071192;28;20195;-44
2022/10/23 04:59:00;;;;;;;5.23;3.30;;;;;;;;;;5071315;28;20192;-44
2022/10/23 05:01:26;;;;;;;4.53;4.00;;;;;;;;;;5071189;28;20204;-44
2022/10/23 05:03:52;;;;;;;3.90;3.50;;;;;;;;;;5072461;28;20195;-44
2022/10/23 05:06:20;;;;;;;3.97;3.07;;;;;;;;;;5075200;28;20199;-44
2022/10/23 05:08:46;;;;;;;4.10;3.40;;;;;;;;;;5075094;28;20219;-44
2022/10/23 05:11:12;;;;;;;5.07;3.57;;;;;;;;;;5075300;28;20262;-44
2022/10/23 05:13:38;;;;;;;4.10;3.70;;;;;;;;;;5074694;28;20298;-44
2022/10/23 05:16:04;;;;;;;3.50;3.20;;;;;;;;;;5075063;28;20203;-45
2022/10/23 05:18:32;;;;;;;3.90;3.53;;;;;;;;;;5075011;28;20200;-44
2022/10/23 05:21:00;;;;;;;4.37;3.73;;;;;;;;;;5074765;28;20672;-45
2022/10/23 05:23:28;;;;;;;5.13;3.57;;;;;;;;;;5075166;28;20781;-45
2022/10/23 05:25:54;;;;;;;4.47;3.40;;;;;;;;;;5074653;28;20238;-44
2022/10/23 05:28:20;;;;;;;4.90;3.43;;;;;;;;;;5074870;28;20200;-45
2022/10/23 05:30:46;;;;;;;4.27;3.50;;;;;;;;;;5074608;28;20191;-45
2022/10/23 05:33:12;;;;;;;6.00;3.73;;;;;;;;;;5074722;28;20210;-44
2022/10/23 05:35:39;;;;;;;6.80;3.57;;;;;;;;;;5074456;28;20198;-44
2022/10/23 05:38:06;;;;;;;5.87;3.90;;;;;;;;;;5074752;28;20195;-44
2022/10/23 05:40:34;;;;;;;6.73;3.57;;;;;;;;;;5074484;28;20195;-45
2022/10/23 05:43:00;;;;;;;4.43;3.40;;;;;;;;;;5074462;28;20230;-45
2022/10/23 05:45:26;;;;;;;4.03;3.70;;;;;;;;;;5074421;28;20406;-44
2022/10/23 05:47:52;;;;;;;4.20;3.80;;;;;;;;;;5074221;28;20199;-44
2022/10/23 05:50:18;;;;;;;6.47;4.60;;;;;;;;;;5074225;28;20653;-45
2022/10/23 05:52:48;;;;;;;4.40;3.80;;;;;;;;;;5074218;28;20196;-44
2022/10/23 05:55:14;;;;;;;6.10;3.73;;;;;;;;;;5074362;28;20195;-44
2022/10/23 05:57:41;;;;;;;7.67;3.37;;;;;;;;;;5074091;28;20192;-44
2022/10/23 06:00:08;;;;;;;4.00;3.50;;;;;;;;;;5074291;28;20227;-44
2022/10/23 06:02:34;;;;;;;5.53;4.00;;;;;;;;;;5074181;28;20214;-45
2022/10/23 06:05:00;;;;;;;4.57;3.20;;;;;;;;;;5074120;28;20306;-45
2022/10/23 06:07:27;;;;;;;9.30;3.97;;;;;;;;;;5073844;28;20710;-45
2022/10/23 06:09:53;;;;;;;6.73;4.20;;;;;;;;;;5072753;28;20214;-44
2022/10/23 06:12:19;;;;;;;6.40;4.80;;;;;;;;;;5074015;28;20203;-44
2022/10/23 06:14:47;;;;;;;8.73;4.50;;;;;;;;;;5073586;28;20606;-44
2022/10/23 06:17:13;;;;;;;6.60;4.47;;;;;;;;;;5073640;28;20199;-44
2022/10/23 06:19:39;;;;;;;5.43;3.30;;;;;;;;;;5073578;28;20686;-44
2022/10/23 06:22:05;;;;;;;5.57;3.77;;;;;;;;;;5073048;28;20340;-44
2022/10/23 06:24:31;;;;;;;3.90;3.50;;;;;;;;;;5072939;28;20620;-44
2022/10/23 06:26:57;;;;;;;4.93;3.77;;;;;;;;;;5073424;28;20426;-44
2022/10/23 06:29:23;;;;;;;4.77;3.50;;;;;;;;;;5073610;28;20202;-44
2022/10/23 06:31:50;;;;;;;4.90;3.33;;;;;;;;;;5073520;28;20274;-45
2022/10/23 06:34:16;;;;;;;3.57;3.27;;;;;;;;;;5073484;28;20278;-44
2022/10/23 06:36:43;;;;;;;5.70;3.37;;;;;;;;;;5073315;28;20249;-44
2022/10/23 06:39:09;;;;;;;6.57;2.97;;;;;;;;;;5072531;28;20199;-45
2022/10/23 06:41:37;;;;;;;3.57;3.20;;;;;;;;;;5073350;28;20198;-45
2022/10/23 06:44:03;;;;;;;5.47;3.40;;;;;;;;;;5073222;28;20253;-45
2022/10/23 06:46:32;;;;;;;4.13;3.23;;;;;;;;;;5073363;28;20195;-45
2022/10/23 06:48:59;;;;;;;4.97;3.47;;;;;;;;;;5073079;28;20227;-45
2022/10/23 06:51:28;;;;;;;4.60;3.73;;;;;;;;;;5072946;28;20240;-45
2022/10/23 06:53:55;;;;;;;7.20;4.63;;;;;;;;;;5068969;28;20618;-45
2022/10/23 06:56:21;;;;;;;13.73;8.43;;;;;;;;;;5071987;28;20200;-45
2022/10/23 06:58:48;;;;;;;9.87;6.50;;;;;;;;;;5071958;28;20207;-45
2022/10/23 07:01:15;;;;;;;17.60;9.17;;;;;;;;;;5073121;28;20200;-45
2022/10/23 07:03:41;;;;;;;19.43;12.50;;;;;;;;;;5072440;28;20246;-45
2022/10/23 07:06:09;;;;;;;21.73;15.30;;;;;;;;;;5072621;28;20322;-45
2022/10/23 07:08:36;;;;;;;23.50;17.00;;;;;;;;;;5071981;28;20639;-45
2022/10/23 07:11:02;;;;;;;23.53;17.40;;;;;;;;;;5071912;28;20200;-45
2022/10/23 07:13:28;;;;;;;24.00;17.27;;;;;;;;;;5072643;28;20203;-45
2022/10/23 07:15:54;;;;;;;22.40;17.77;;;;;;;;;;5071136;28;20206;-45
2022/10/23 07:18:20;;;;;;;22.53;18.00;;;;;;;;;;5071672;28;20194;-45
2022/10/23 07:20:48;;;;;;;17.27;14.00;;;;;;;;;;5072416;28;20653;-45
2022/10/23 07:23:15;;;;;;;16.93;12.20;;;;;;;;;;5072781;28;20196;-45
2022/10/23 07:25:42;;;;;;;7.87;6.67;;;;;;;;;;5072488;28;20213;-45
2022/10/23 07:28:08;;;;;;;7.03;4.70;;;;;;;;;;5071498;28;20275;-45
2022/10/23 07:30:34;;;;;;;6.13;4.33;;;;;;;;;;5071872;28;20199;-45
2022/10/23 07:33:00;;;;;;;5.53;4.13;;;;;;;;;;5071721;28;20199;-45
2022/10/23 07:35:26;;;;;;;4.83;4.33;;;;;;;;;;5072425;28;20434;-45
2022/10/23 07:37:52;;;;;;;4.97;4.20;;;;;;;;;;5072149;28;20222;-45
2022/10/23 07:40:19;;;;;;;4.73;4.07;;;;;;;;;;5072204;28;20230;-45
2022/10/23 07:42:45;;;;;;;6.50;4.60;;;;;;;;;;5072800;28;20206;-45
2022/10/23 07:45:11;;;;;;;4.67;3.97;;;;;;;;;;5072458;28;20314;-45
2022/10/23 07:47:37;;;;;;;4.73;3.83;;;;;;;;;;5072387;28;20651;-45
2022/10/23 07:50:03;;;;;;;4.10;3.67;;;;;;;;;;5071796;28;20231;-45
2022/10/23 07:52:29;;;;;;;4.37;3.80;;;;;;;;;;5072127;28;20237;-45
2022/10/23 07:54:55;;;;;;;8.83;3.73;;;;;;;;;;5070562;28;20612;-45
2022/10/23 07:57:23;;;;;;;4.93;4.30;;;;;;;;;;5070987;28;20206;-45
2022/10/23 07:59:49;;;;;;;6.73;4.43;;;;;;;;;;5071722;28;20227;-45
2022/10/23 08:02:15;;;;;;;7.27;5.10;;;;;;;;;;5071621;28;20639;-45
2022/10/23 08:04:41;;;;;;;6.13;5.13;;;;;;;;;;5071150;28;20224;-45
2022/10/23 08:07:07;;;;;;;10.00;6.30;;;;;;;;;;5071584;28;20283;-45
2022/10/23 08:09:34;;;;;;;7.00;5.50;;;;;;;;;;5071602;28;20261;-45
2022/10/23 08:12:00;;;;;;;8.53;5.93;;;;;;;;;;5071292;28;20573;-45
2022/10/23 08:14:27;;;;;;;7.40;5.50;;;;;;;;;;5071661;28;20199;-45
2022/10/23 08:16:53;;;;;;;6.33;5.70;;;;;;;;;;5070650;28;20274;-45
2022/10/23 08:19:19;;;;;;;7.67;6.87;;;;;;;;;;5071730;28;20612;-45
2022/10/23 08:21:45;;;;;;;9.83;6.90;;;;;;;;;;5071278;28;20573;-45
2022/10/23 08:24:12;;;;;;;7.83;6.83;;;;;;;;;;5071417;28;20223;-46
2022/10/23 08:26:39;;;;;;;6.97;6.27;;;;;;;;;;5071284;28;20610;-46
2022/10/23 08:29:05;;;;;;;7.37;6.47;;;;;;;;;;5071342;28;20196;-44
2022/10/23 08:31:32;;;;;;;8.07;6.50;;;;;;;;;;5071360;28;20291;-46
2022/10/23 08:33:58;;;;;;;10.57;6.10;;;;;;;;;;5070992;28;20207;-45
2022/10/23 08:36:25;;;;;;;9.10;6.43;;;;;;;;;;5071460;28;20203;-44
2022/10/23 08:38:55;;;;;;;8.83;6.80;;;;;;;;;;5070796;28;20198;-44
2022/10/23 08:41:26;;;;;;;7.93;6.57;;;;;;;;;;5071090;28;20222;-44
2022/10/23 08:43:54;;;;;;;8.93;6.43;;;;;;;;;;5070683;28;20207;-44
2022/10/23 08:46:25;;;;;;;20.40;15.03;;;;;;;;;;5070629;28;20610;-44
2022/10/23 08:48:54;;;;;;;11.63;10.10;;;;;;;;;;5071199;28;20195;-45
2022/10/23 08:51:22;;;;;;;10.83;8.40;;;;;;;;;;5071045;28;20239;-44
2022/10/23 08:53:51;;;;;;;7.30;6.17;;;;;;;;;;5070931;28;20542;-44
2022/10/23 08:56:20;;;;;;;8.40;6.60;;;;;;;;;;5071024;28;20282;-45
2022/10/23 08:58:50;;;;;;;9.33;7.63;;;;;;;;;;5070651;28;20658;-45
2022/10/23 09:01:23;;;;;;;8.47;7.57;;;;;;;;;;5070663;28;20666;-45
2022/10/23 09:03:49;;;;;;;8.83;5.73;;;;;;;;;;5070859;28;20275;-45
2022/10/23 09:06:22;;;;;;;11.73;5.83;;;;;;;;;;5070982;28;20262;-45
2022/10/23 09:08:53;;;;;;;7.77;6.23;;;;;;;;;;5068891;28;20514;-45
2022/10/23 09:11:24;;;;;;;11.57;8.53;;;;;;;;;;5067082;28;20196;-45
2022/10/23 09:13:57;;;;;;;9.33;5.63;;;;;;;;;;5071043;28;20195;-45
2022/10/23 09:16:26;;;;;;;4.97;3.30;;;;;;;;;;5070469;28;20222;-45
2022/10/23 09:18:53;;;;;;;6.87;2.87;;;;;;;;;;5070715;28;20200;-44
2022/10/23 09:21:25;;;;;;;4.37;2.80;;;;;;;;;;5071108;28;20709;-44
2022/10/23 09:23:51;;;;;;;4.43;3.00;;;;;;;;;;5070144;28;20669;-45
2022/10/23 09:26:18;;;;;;;5.90;3.00;;;;;;;;;;5069739;28;20257;-45
2022/10/23 09:28:46;;;;;;;5.33;3.03;;;;;;;;;;5070209;28;20279;-45
2022/10/23 09:31:12;;;;;;;5.03;2.97;;;;;;;;;;5070837;28;20200;-45
2022/10/23 09:33:39;;;;;;;4.27;2.70;;;;;;;;;;5070558;28;20221;-45
2022/10/23 09:36:06;;;;;;;6.20;2.63;;;;;;;;;;5071016;28;20299;-43
2022/10/23 09:38:35;;;;;;;6.67;3.20;;;;;;;;;;5070963;28;20651;-43
2022/10/23 09:41:02;;;;;;;8.33;2.90;;;;;;;;;;5070567;28;20200;-43
2022/10/23 09:43:29;;;;;;;4.97;3.00;;;;;;;;;;5070291;28;20642;-44
2022/10/23 09:45:58;;;;;;;7.10;4.00;;;;;;;;;;5069674;28;20227;-51
2022/10/23 09:48:24;;;;;;;6.87;3.30;;;;;;;;;;5070759;28;20191;-44
2022/10/23 09:50:52;;;;;;;10.40;3.30;;;;;;;;;;5072036;28;20307;-44
2022/10/23 09:53:21;;;;;;;7.27;3.90;;;;;;;;;;5073423;28;20409;-44
2022/10/23 09:55:52;;;;;;;6.00;2.90;;;;;;;;;;5073974;28;20187;-44
2022/10/23 09:58:20;;;;;;;4.50;2.60;;;;;;;;;;5074141;28;20207;-44
2022/10/23 10:00:46;;;;;;;5.77;2.83;;;;;;;;;;5074410;28;20206;-44
2022/10/23 10:03:18;;;;;;;8.27;3.47;;;;;;;;;;5074283;28;20739;-44
2022/10/23 10:05:52;;;;;;;4.23;2.80;;;;;;;;;;5073434;28;20658;-44
2022/10/23 10:08:22;;;;;;;4.50;2.80;;;;;;;;;;5073467;28;20777;-45
2022/10/23 10:10:50;;;;;;;5.03;2.77;;;;;;;;;;5072839;28;20196;-45
2022/10/23 10:13:25;;;;;;;4.30;2.80;;;;;;;;;;5073782;28;20651;-44
2022/10/23 10:15:55;;;;;;;2.73;2.20;;;;;;;;;;5074168;28;20203;-45
2022/10/23 10:18:24;;;;;;;6.13;3.23;;;;;;;;;;5074224;28;20233;-44
2022/10/23 10:20:57;;;;;;;6.63;2.97;;;;;;;;;;5074027;28;20207;-44
2022/10/23 10:23:28;;;;;;;4.83;3.20;;;;;;;;;;5074113;28;20207;-44
2022/10/23 10:25:58;;;;;;;6.30;2.80;;;;;;;;;;5073802;28;20640;-44
2022/10/23 10:28:30;;;;;;;5.07;2.60;;;;;;;;;;5073865;28;20204;-45
2022/10/23 10:30:59;;;;;;;3.77;3.37;;;;;;;;;;5073943;28;20303;-45
2022/10/23 10:33:28;;;;;;;6.27;3.17;;;;;;;;;;5073441;28;20199;-45
2022/10/23 10:35:57;;;;;;;6.00;3.40;;;;;;;;;;5073242;28;20207;-44
2022/10/23 10:38:29;;;;;;;5.67;3.20;;;;;;;;;;5073670;28;20196;-45
2022/10/23 10:41:09;;;;;;;12.47;3.97;;;;;;;;;;5073248;28;20202;-45
2022/10/23 10:43:43;;;;;;;6.97;3.03;;;;;;;;;;5073336;28;20195;-45
2022/10/23 10:46:15;;;;;;;4.00;2.70;;;;;;;;;;5073426;28;20578;-44
2022/10/23 10:48:41;;;;;;;5.27;2.67;;;;;;;;;;5073379;28;20200;-45
2022/10/23 10:51:10;;;;;;;3.63;3.03;;;;;;;;;;5073114;28;20258;-45
2022/10/23 10:53:43;;;;;;;7.67;4.20;;;;;;;;;;5073352;28;20215;-45
2022/10/23 10:56:13;;;;;;;10.27;4.60;;;;;;;;;;5073300;28;20662;-45
2022/10/23 10:58:45;;;;;;;6.40;2.93;;;;;;;;;;5073205;28;20202;-45
2022/10/23 11:01:13;;;;;;;5.37;2.53;;;;;;;;;;5073354;28;20207;-45
2022/10/23 11:03:42;;;;;;;4.27;2.33;;;;;;;;;;5073057;28;20250;-44
2022/10/23 11:06:11;;;;;;;5.90;2.90;;;;;;;;;;5072993;28;20232;-45
2022/10/23 11:08:38;;;;;;;5.33;2.60;;;;;;;;;;5072792;28;20278;-45
2022/10/23 11:11:07;;;;;;;6.50;2.20;;;;;;;;;;5072361;28;20196;-45
2022/10/23 11:13:35;;;;;;;5.70;2.20;;;;;;;;;;5072658;28;20305;-45
2022/10/23 11:16:04;;;;;;;2.93;2.07;;;;;;;;;;5071707;28;20207;-45
2022/10/23 11:18:30;;;;;;;4.30;2.63;;;;;;;;;;5072223;28;20299;-45
2022/10/23 11:21:07;;;;;;;6.07;2.40;;;;;;;;;;5072346;28;20681;-45
2022/10/23 11:23:42;;;;;;;5.00;2.13;;;;;;;;;;5072820;28;20196;-44
2022/10/23 11:26:13;;;;;;;2.50;1.97;;;;;;;;;;5072611;28;20254;-44
2022/10/23 11:28:48;;;;;;;5.93;2.33;;;;;;;;;;5072599;28;20201;-45
2022/10/23 11:31:21;;;;;;;3.90;2.10;;;;;;;;;;5072576;28;20293;-45
2022/10/23 11:33:58;;;;;;;5.53;2.30;;;;;;;;;;5072458;28;20251;-45
2022/10/23 11:36:37;;;;;;;3.07;2.07;;;;;;;;;;5072972;28;20259;-45
2022/10/23 11:39:14;;;;;;;3.93;1.80;;;;;;;;;;5072199;28;20198;-45
2022/10/23 11:41:47;;;;;;;3.20;1.90;;;;;;;;;;5072235;28;20884;-45
2022/10/23 11:44:23;;;;;;;2.90;1.70;;;;;;;;;;5072340;28;20209;-45
2022/10/23 11:46:59;;;;;;;4.43;1.53;;;;;;;;;;5071980;28;20293;-45
2022/10/23 11:49:25;;;;;;;5.10;1.90;;;;;;;;;;5072331;28;20198;-45
2022/10/23 11:51:58;;;;;;;4.00;2.37;;;;;;;;;;5072046;28;20816;-46
2022/10/23 11:54:26;;;;;;;4.87;1.93;;;;;;;;;;5072161;28;20203;-45
2022/10/23 11:56:53;;;;;;;3.20;1.50;;;;;;;;;;5072000;28;20199;-45
2022/10/23 11:59:22;;;;;;;3.07;1.93;;;;;;;;;;5071908;28;20257;-45
2022/10/23 12:01:49;;;;;;;3.03;1.80;;;;;;;;;;5071734;28;20198;-45
2022/10/23 12:04:23;;;;;;;3.67;2.23;;;;;;;;;;5071809;28;20600;-45
2022/10/23 12:06:50;;;;;;;2.33;1.77;;;;;;;;;;5071779;28;20416;-44
2022/10/23 12:09:27;;;;;;;3.47;1.60;;;;;;;;;;5071934;28;20280;-45
2022/10/23 12:12:14;;;;;;;5.73;1.80;;;;;;;;;;5071962;28;20283;-45
2022/10/23 12:14:41;;;;;;;3.60;1.90;;;;;;;;;;5071633;28;20289;-45
2022/10/23 12:17:22;;;;;;;3.00;1.83;;;;;;;;;;5071750;28;20195;-46
2022/10/23 12:19:51;;;;;;;4.13;1.73;;;;;;;;;;5071914;28;20213;-45
2022/10/23 12:22:19;;;;;;;4.03;1.70;;;;;;;;;;5071830;28;20213;-46
2022/10/23 12:24:51;;;;;;;3.73;1.70;;;;;;;;;;5071357;28;20932;-44
2022/10/23 12:27:24;;;;;;;1.73;1.50;;;;;;;;;;5070835;28;20229;-45
2022/10/23 12:30:03;;;;;;;3.23;1.60;;;;;;;;;;5071074;28;20201;-45
2022/10/23 12:32:38;;;;;;;3.70;1.70;;;;;;;;;;5071233;28;20790;-46
2022/10/23 12:35:10;;;;;;;3.53;1.73;;;;;;;;;;5071676;28;20204;-45
2022/10/23 12:37:48;;;;;;;3.50;1.87;;;;;;;;;;5071467;28;20197;-46
2022/10/23 12:40:14;;;;;;;3.23;1.80;;;;;;;;;;5071290;28;20643;-45
2022/10/23 12:42:40;;;;;;;5.33;1.73;;;;;;;;;;5070880;28;20199;-45
2022/10/23 12:45:15;;;;;;;3.17;1.87;;;;;;;;;;5071380;28;20588;-45
2022/10/23 12:47:42;;;;;;;3.50;1.60;;;;;;;;;;5071155;28;20206;-45
2022/10/23 12:50:17;;;;;;;2.57;1.60;;;;;;;;;;5071024;28;20336;-46
2022/10/23 12:52:50;;;;;;;3.77;1.73;;;;;;;;;;5071487;28;20227;-44
2022/10/23 12:55:16;;;;;;;5.47;1.83;;;;;;;;;;5071371;28;20643;-44
2022/10/23 12:57:43;;;;;;;3.20;1.77;;;;;;;;;;5071266;28;20222;-45
2022/10/23 13:00:10;;;;;;;7.13;1.50;;;;;;;;;;5071107;28;20208;-46
2022/10/23 13:02:36;;;;;;;7.57;2.13;;;;;;;;;;5071375;28;20223;-45
2022/10/23 13:05:04;;;;;;;3.27;1.93;;;;;;;;;;5071007;28;20695;-45
2022/10/23 13:07:35;;;;;;;4.27;1.70;;;;;;;;;;5070941;28;20215;-44
2022/10/23 13:10:01;;;;;;;5.63;1.93;;;;;;;;;;5069145;28;20201;-45
2022/10/23 13:12:29;;;;;;;3.73;1.80;;;;;;;;;;5069598;28;20197;-45
2022/10/23 13:14:57;;;;;;;3.23;1.70;;;;;;;;;;5071520;28;20232;-46
2022/10/23 13:17:33;;;;;;;3.23;1.63;;;;;;;;;;5071559;28;20200;-44
2022/10/23 13:20:07;;;;;;;4.00;1.70;;;;;;;;;;5071608;28;20203;-45
2022/10/23 13:22:35;;;;;;;3.10;1.87;;;;;;;;;;5071393;28;20207;-46
2022/10/23 13:25:01;;;;;;;2.57;1.63;;;;;;;;;;5071528;28;20277;-46
2022/10/23 13:27:32;;;;;;;3.00;1.70;;;;;;;;;;5073467;28;20205;-46
2022/10/23 13:29:58;;;;;;;7.63;1.67;;;;;;;;;;5072726;28;20226;-45
2022/10/23 13:32:25;;;;;;;5.23;1.83;;;;;;;;;;5073775;28;20209;-45
2022/10/23 13:34:54;;;;;;;2.07;1.40;;;;;;;;;;5074461;28;20203;-45
2022/10/23 13:37:22;;;;;;;2.93;1.67;;;;;;;;;;5075134;28;20201;-45
2022/10/23 13:39:58;;;;;;;4.20;1.80;;;;;;;;;;5074694;28;20589;-45
2022/10/23 13:42:24;;;;;;;7.37;2.47;;;;;;;;;;5075418;28;20269;-45
2022/10/23 13:44:50;;;;;;;2.77;1.47;;;;;;;;;;5074847;28;20250;-45
2022/10/23 13:47:17;;;;;;;2.43;1.60;;;;;;;;;;5075053;28;20196;-45
2022/10/23 13:49:43;;;;;;;4.07;1.90;;;;;;;;;;5074737;28;20215;-45
2022/10/23 13:52:10;;;;;;;3.43;1.60;;;;;;;;;;5074783;28;20694;-46
2022/10/23 13:54:36;;;;;;;2.73;1.90;;;;;;;;;;5074806;28;20219;-45
2022/10/23 13:57:04;;;;;;;6.47;3.23;;;;;;;;;;5074680;28;20745;-46
2022/10/23 13:59:30;;;;;;;5.20;1.83;;;;;;;;;;5074897;28;20258;-46
2022/10/23 14:01:56;;;;;;;4.27;3.07;;;;;;;;;;5074749;28;20203;-45
2022/10/23 14:04:22;;;;;;;6.57;2.17;;;;;;;;;;5074781;28;20196;-45
2022/10/23 14:06:48;;;;;;;3.10;1.80;;;;;;;;;;5074564;28;20244;-45
2022/10/23 14:09:16;;;;;;;2.67;2.00;;;;;;;;;;5074558;28;20221;-46
2022/10/23 14:11:42;;;;;;;3.40;1.93;;;;;;;;;;5074263;28;20192;-46
2022/10/23 14:14:10;;;;;;;4.53;1.83;;;;;;;;;;5074260;28;20298;-44
2022/10/23 14:16:36;;;;;;;3.13;1.87;;;;;;;;;;5074304;28;20200;-46
2022/10/23 14:19:02;;;;;;;3.80;1.70;;;;;;;;;;5074405;28;20199;-45
2022/10/23 14:21:28;;;;;;;4.07;1.80;;;;;;;;;;5074455;28;20227;-45
2022/10/23 14:23:54;;;;;;;6.40;1.70;;;;;;;;;;5074240;28;20694;-45
2022/10/23 14:26:24;;;;;;;6.70;1.87;;;;;;;;;;5074283;28;20776;-46
2022/10/23 14:28:52;;;;;;;1.60;1.50;;;;;;;;;;5074315;28;20665;-45
2022/10/23 14:31:20;;;;;;;2.73;1.80;;;;;;;;;;5074055;28;20225;-46
2022/10/23 14:33:51;;;;;;;3.53;1.70;;;;;;;;;;5074168;28;20200;-46
2022/10/23 14:36:17;;;;;;;3.97;1.67;;;;;;;;;;5073761;28;20196;-45
2022/10/23 14:38:43;;;;;;;4.07;1.70;;;;;;;;;;5074240;28;20200;-45
2022/10/23 14:41:10;;;;;;;2.47;1.73;;;;;;;;;;5074036;28;20223;-45
2022/10/23 14:43:36;;;;;;;4.10;1.73;;;;;;;;;;5073990;28;20229;-45
2022/10/23 14:46:07;;;;;;;4.70;3.90;;;;;;;;;;5073695;28;20698;-44